Time;durP1;ratioP1;P1;durP2;ratioP2;P2;SDS_P1;SDS_P2;PMS_P1;PMS_P2;Temp;Humidity;BMP_temperature;BMP_pressure;BME280_temperature;BME280_humidity;BME280_pressure;Samples;Min_cycle;Max_cycle;Signal;HPM_P1;HPM_P2
2021/11/03 00:03:10;;;;;;;25.30;13.23;;;;;;;5.63;78.01;99008.22;8733609;33;20233;-77
2021/11/03 00:08:17;;;;;;;27.92;12.98;;;;;;;5.58;78.46;99017.56;8695850;33;20498;-77
2021/11/03 00:13:23;;;;;;;25.55;13.40;;;;;;;5.53;78.75;99027.75;8720549;33;20234;-77
2021/11/03 00:18:26;;;;;;;29.92;14.40;;;;;;;5.43;79.49;99020.50;8728699;33;20213;-76
2021/11/03 00:23:31;;;;;;;26.77;12.80;;;;;;;5.47;78.97;99032.59;8727150;33;20207;-77
2021/11/03 00:28:34;;;;;;;28.65;12.50;;;;;;;5.43;79.16;99025.84;8721602;33;20148;-76
2021/11/03 00:33:38;;;;;;;26.05;12.70;;;;;;;5.33;78.98;99024.88;8683471;33;20194;-77
2021/11/03 00:38:42;;;;;;;26.77;13.05;;;;;;;5.28;79.33;99011.09;8696919;33;20249;-77
2021/11/03 00:43:46;;;;;;;28.60;12.77;;;;;;;5.21;79.72;99012.53;8696168;33;20179;-77
2021/11/03 00:48:49;;;;;;;26.60;13.18;;;;;;;5.21;79.78;99013.41;8722673;33;20437;-77
2021/11/03 00:53:54;;;;;;;25.42;12.88;;;;;;;5.19;80.00;99025.16;8696878;33;20805;-77
2021/11/03 00:58:57;;;;;;;26.23;12.48;;;;;;;5.14;80.15;99016.69;8721920;33;20213;-77
2021/11/03 01:04:01;;;;;;;27.77;14.25;;;;;;;5.12;80.19;99014.13;8696975;33;20190;-77
2021/11/03 01:09:06;;;;;;;26.73;13.05;;;;;;;5.11;80.16;99007.13;8722110;33;20182;-76
2021/11/03 01:14:11;;;;;;;26.52;13.45;;;;;;;5.01;80.27;99011.47;8744201;33;20282;-76
2021/11/03 01:19:14;;;;;;;29.67;13.95;;;;;;;4.94;80.76;99010.28;8684711;33;20773;-77
2021/11/03 01:24:19;;;;;;;28.42;14.57;;;;;;;5.00;80.92;99017.78;8696563;33;22148;-77
2021/11/03 01:29:22;;;;;;;31.77;15.50;;;;;;;5.01;80.92;99011.47;8696256;33;20645;-75
2021/11/03 01:34:25;;;;;;;29.23;14.50;;;;;;;5.05;80.59;99010.28;8720733;33;20192;-77
2021/11/03 01:39:31;;;;;;;25.88;14.02;;;;;;;5.04;80.65;99009.41;8695925;33;20549;-77
2021/11/03 01:44:35;;;;;;;24.58;14.43;;;;;;;5.03;80.75;99007.72;8695908;33;20145;-76
2021/11/03 01:49:38;;;;;;;30.70;14.70;;;;;;;5.01;80.85;99004.34;8683804;33;20444;-77
2021/11/03 01:54:52;;;;;;;30.17;14.60;;;;;;;5.03;80.55;99006.91;8695025;33;20846;-77
2021/11/03 02:00:07;;;;;;;24.85;12.63;;;;;;;4.97;80.47;99008.19;8683568;33;20154;-76
2021/11/03 02:05:27;;;;;;;25.63;13.60;;;;;;;4.90;80.59;99001.66;8742660;33;20172;-77
2021/11/03 02:10:32;;;;;;;26.27;13.13;;;;;;;4.87;80.42;98999.25;8684094;33;20222;-75
2021/11/03 02:15:35;;;;;;;26.05;12.43;;;;;;;4.89;80.25;99001.81;8700132;33;20160;-76
2021/11/03 02:20:41;;;;;;;26.70;13.63;;;;;;;4.89;80.03;98994.66;8721017;33;20180;-77
2021/11/03 02:25:49;;;;;;;27.23;12.93;;;;;;;4.88;80.02;98992.94;8692882;33;20442;-77
2021/11/03 02:30:52;;;;;;;24.30;13.63;;;;;;;4.84;79.58;98991.50;8682057;33;20187;-77
2021/11/03 02:35:59;;;;;;;27.90;14.95;;;;;;;4.77;79.52;98990.28;8693494;33;20183;-76
2021/11/03 02:41:10;;;;;;;25.45;12.45;;;;;;;4.65;79.23;98993.94;8682752;33;20254;-77
2021/11/03 02:46:16;;;;;;;27.58;12.55;;;;;;;4.58;79.55;99006.84;8693730;33;20734;-77
2021/11/03 02:51:31;;;;;;;22.75;11.95;;;;;;;4.53;80.06;99003.72;8694327;33;20151;-77
2021/11/03 02:56:40;;;;;;;24.00;11.80;;;;;;;4.62;79.94;99001.19;8693800;33;20135;-76
2021/11/03 03:01:47;;;;;;;22.70;10.93;;;;;;;4.64;79.89;99001.06;8698172;33;20828;-77
2021/11/03 03:06:51;;;;;;;26.00;13.30;;;;;;;4.50;78.96;98993.31;8751703;33;20136;-76
2021/11/03 03:12:03;;;;;;;26.52;13.57;;;;;;;4.14;78.54;98997.84;8690781;33;20164;-75
2021/11/03 03:17:14;;;;;;;27.75;12.85;;;;;;;3.91;78.75;98997.78;8691214;33;21121;-76
2021/11/03 03:22:20;;;;;;;29.60;13.63;;;;;;;3.89;79.47;99005.00;8717437;33;20238;-77
2021/11/03 03:27:30;;;;;;;28.85;13.45;;;;;;;3.97;79.60;99012.41;8695411;33;20640;-77
2021/11/03 03:32:34;;;;;;;29.00;14.02;;;;;;;4.00;79.86;99012.16;8698320;33;20187;-77
2021/11/03 03:37:37;;;;;;;26.27;12.75;;;;;;;3.99;80.00;98997.22;8697530;33;20266;-76
2021/11/03 03:42:41;;;;;;;29.17;13.43;;;;;;;3.95;79.74;98988.63;8722689;33;20769;-77
2021/11/03 03:47:45;;;;;;;27.52;14.15;;;;;;;3.88;79.89;98973.25;8722088;33;20189;-77
2021/11/03 03:52:48;;;;;;;29.13;13.18;;;;;;;3.86;80.01;98972.53;8697687;33;20227;-77
2021/11/03 03:57:55;;;;;;;31.00;14.60;;;;;;;3.84;80.10;98975.31;8697670;33;20282;-77
2021/11/03 04:02:58;;;;;;;28.20;14.35;;;;;;;3.88;80.27;98962.63;8698099;33;20260;-75
2021/11/03 04:08:02;;;;;;;27.90;14.05;;;;;;;3.88;80.33;98962.63;8697939;33;20201;-77
2021/11/03 04:13:06;;;;;;;27.20;13.20;;;;;;;3.88;80.22;98974.09;8699784;33;20192;-77
2021/11/03 04:18:10;;;;;;;23.33;11.82;;;;;;;3.92;80.33;98977.38;8697496;33;20234;-76
2021/11/03 04:23:14;;;;;;;28.27;13.18;;;;;;;3.96;79.96;98986.81;8707746;33;20164;-76
2021/11/03 04:28:19;;;;;;;27.77;12.48;;;;;;;3.91;80.13;98988.97;8720344;33;20283;-75
2021/11/03 04:33:22;;;;;;;23.48;12.38;;;;;;;3.95;79.89;99001.06;8707601;33;20187;-77
2021/11/03 04:38:27;;;;;;;22.92;12.13;;;;;;;3.90;79.70;99012.03;8696874;33;20183;-77
2021/11/03 04:43:32;;;;;;;22.92;11.43;;;;;;;3.81;79.61;99010.03;8695685;33;20195;-77
2021/11/03 04:48:36;;;;;;;24.17;12.57;;;;;;;3.78;79.72;99009.44;8696138;33;21192;-77
2021/11/03 04:53:39;;;;;;;26.63;12.85;;;;;;;3.79;79.92;99009.34;8719566;33;20978;-77
2021/11/03 04:58:45;;;;;;;31.20;13.70;;;;;;;3.75;79.73;99015.81;8695159;33;20629;-76
2021/11/03 05:03:48;;;;;;;25.65;12.40;;;;;;;3.72;79.64;99024.88;8696141;33;20691;-77
2021/11/03 05:08:53;;;;;;;23.98;12.00;;;;;;;3.61;79.28;99032.78;8721844;33;21752;-78
2021/11/03 05:13:59;;;;;;;22.25;11.82;;;;;;;3.47;79.10;99035.59;8700066;33;20442;-78
2021/11/03 05:19:05;;;;;;;28.45;12.93;;;;;;;3.40;79.15;99034.34;8701015;33;20219;-78
2021/11/03 05:24:14;;;;;;;25.35;12.32;;;;;;;3.46;79.37;99039.22;8702669;33;20180;-77
2021/11/03 05:29:21;;;;;;;27.58;12.40;;;;;;;3.53;79.32;99043.13;8722881;33;20231;-78
2021/11/03 05:34:24;;;;;;;22.38;12.20;;;;;;;3.45;79.37;99056.09;8702180;33;20234;-78
2021/11/03 05:39:27;;;;;;;21.45;11.50;;;;;;;3.40;79.58;99060.91;8720794;33;20184;-77
2021/11/03 05:44:32;;;;;;;28.08;13.20;;;;;;;3.35;79.83;99047.13;8719713;33;20148;-76
2021/11/03 05:49:36;;;;;;;25.27;13.70;;;;;;;3.25;79.84;99041.63;8731390;33;20297;-77
2021/11/03 05:54:39;;;;;;;30.38;13.77;;;;;;;3.27;80.26;99029.94;8692879;33;20179;-76
2021/11/03 05:59:43;;;;;;;23.23;11.63;;;;;;;3.37;80.44;99038.06;8718695;33;20583;-77
2021/11/03 06:04:46;;;;;;;25.52;12.48;;;;;;;3.43;80.48;99031.50;8693521;33;20144;-77
2021/11/03 06:09:50;;;;;;;25.83;12.52;;;;;;;3.43;80.61;99040.31;8718174;33;20194;-77
2021/11/03 06:14:54;;;;;;;24.95;13.18;;;;;;;3.49;80.56;99036.34;8717286;33;20508;-77
2021/11/03 06:19:57;;;;;;;24.08;12.73;;;;;;;3.48;80.55;99038.16;8740754;33;20691;-76
2021/11/03 06:25:07;;;;;;;27.90;12.85;;;;;;;3.55;80.42;99058.94;8718486;33;20517;-77
2021/11/03 06:30:18;;;;;;;30.08;14.73;;;;;;;3.54;80.03;99057.22;8718986;33;20175;-77
2021/11/03 06:35:24;;;;;;;28.58;13.30;;;;;;;3.55;79.93;99059.78;8718023;33;20205;-77
2021/11/03 06:40:29;;;;;;;25.27;12.55;;;;;;;3.57;79.63;99051.72;8694056;33;20147;-77
2021/11/03 06:45:34;;;;;;;27.13;13.50;;;;;;;3.54;79.51;99071.38;8727111;33;20183;-77
2021/11/03 06:50:39;;;;;;;26.65;12.13;;;;;;;3.59;79.60;99082.50;8715249;33;20190;-76
2021/11/03 06:55:46;;;;;;;28.45;13.32;;;;;;;3.66;79.61;99077.59;8715607;33;20140;-77
2021/11/03 07:00:53;;;;;;;25.63;12.63;;;;;;;3.68;79.47;99086.31;8717631;33;20831;-76
2021/11/03 07:05:57;;;;;;;25.17;12.93;;;;;;;3.65;79.76;99074.09;8722643;33;20603;-77
2021/11/03 07:11:01;;;;;;;23.27;12.15;;;;;;;3.80;79.52;99081.91;8722647;33;21474;-77
2021/11/03 07:16:06;;;;;;;26.48;11.93;;;;;;;3.83;79.37;99090.47;8722602;33;20411;-77
2021/11/03 07:21:09;;;;;;;4.65;2.03;;;;;;;3.81;78.91;99089.72;8698359;33;20429;-76
2021/11/03 07:26:13;;;;;;;41.38;13.88;;;;;;;4.09;79.58;99093.88;8722341;33;20179;-78
2021/11/03 07:31:18;;;;;;;32.10;13.57;;;;;;;4.28;78.56;99088.03;8723605;33;21612;-78
2021/11/03 07:36:21;;;;;;;16.42;9.75;;;;;;;4.42;77.69;99096.78;8693536;33;20208;-75
2021/11/03 07:41:25;;;;;;;17.50;8.55;;;;;;;4.64;76.83;99096.81;8718743;33;20286;-76
2021/11/03 07:46:35;;;;;;;12.18;8.15;;;;;;;4.74;75.97;99089.81;8714055;33;20234;-76
2021/11/03 07:51:38;;;;;;;16.73;8.80;;;;;;;4.87;75.32;99095.03;8718844;33;20197;-75
2021/11/03 07:56:46;;;;;;;15.68;8.20;;;;;;;4.83;74.93;99085.63;8693531;33;20184;-76
2021/11/03 08:01:51;;;;;;;15.93;8.52;;;;;;;4.73;75.28;99095.25;8718595;33;20275;-75
2021/11/03 08:06:54;;;;;;;15.68;8.80;;;;;;;4.65;75.71;99087.88;8718954;33;20148;-75
2021/11/03 08:11:59;;;;;;;13.90;7.85;;;;;;;4.61;75.98;99084.59;8717969;33;20239;-76
2021/11/03 08:17:07;;;;;;;18.90;9.30;;;;;;;4.82;75.96;99082.06;8718043;33;20191;-75
2021/11/03 08:22:11;;;;;;;15.55;8.68;;;;;;;4.96;75.95;99086.31;8718679;33;20647;-76
2021/11/03 08:27:17;;;;;;;16.60;8.80;;;;;;;5.10;76.07;99071.13;8717494;33;20156;-76
2021/11/03 08:32:28;;;;;;;17.40;9.25;;;;;;;5.25;75.45;99069.91;8719789;33;20205;-76
2021/11/03 08:37:35;;;;;;;17.35;8.90;;;;;;;5.26;75.73;99061.78;8681869;33;20208;-76
2021/11/03 08:42:38;;;;;;;18.38;9.25;;;;;;;5.44;75.59;99056.81;8717998;33;20218;-75
2021/11/03 08:47:44;;;;;;;18.20;9.02;;;;;;;5.47;75.28;99064.56;8693184;33;21825;-75
2021/11/03 08:52:47;;;;;;;15.75;9.13;;;;;;;5.54;75.58;99064.91;8717684;33;20188;-75
2021/11/03 08:57:50;;;;;;;22.30;9.45;;;;;;;5.50;75.71;99074.94;8717567;33;20149;-75
2021/11/03 09:02:55;;;;;;;21.08;11.00;;;;;;;5.62;76.03;99064.28;8717773;33;20273;-74
2021/11/03 09:08:00;;;;;;;21.45;11.10;;;;;;;5.83;75.70;99078.50;8692946;33;21529;-75
2021/11/03 09:13:03;;;;;;;18.15;10.32;;;;;;;5.97;75.70;99079.19;8679895;33;20251;-75
2021/11/03 09:18:08;;;;;;;23.20;10.70;;;;;;;6.08;75.43;99085.31;8716400;33;20238;-75
2021/11/03 09:23:11;;;;;;;21.00;10.20;;;;;;;6.26;75.00;99082.13;8716067;33;20518;-75
2021/11/03 09:28:15;;;;;;;17.15;9.63;;;;;;;6.34;74.99;99085.81;8717149;33;20229;-74
2021/11/03 09:33:20;;;;;;;22.10;11.50;;;;;;;6.42;74.74;99084.31;8717173;33;20453;-75
2021/11/03 09:38:26;;;;;;;19.63;10.27;;;;;;;6.50;74.75;99081.84;8715212;33;20442;-75
2021/11/03 09:43:35;;;;;;;20.20;10.00;;;;;;;6.66;74.64;99073.41;8716679;33;20179;-76
2021/11/03 09:48:39;;;;;;;21.38;11.38;;;;;;;6.98;74.17;99062.66;8717241;33;20180;-75
2021/11/03 09:53:48;;;;;;;24.65;10.98;;;;;;;7.14;73.14;99056.81;8714906;33;20260;-76
2021/11/03 09:59:02;;;;;;;20.45;10.65;;;;;;;7.30;73.46;99049.16;8715075;33;20213;-75
2021/11/03 10:04:22;;;;;;;23.45;11.13;;;;;;;7.44;72.72;99051.44;8719887;33;20136;-75
2021/11/03 10:09:25;;;;;;;23.58;11.80;;;;;;;7.44;72.49;99047.91;8723013;33;21292;-75
2021/11/03 10:14:29;;;;;;;26.15;12.23;;;;;;;7.26;73.07;99045.03;8731957;33;20532;-75
2021/11/03 10:19:37;;;;;;;22.83;11.32;;;;;;;7.30;73.42;99045.63;8721416;33;20240;-76
2021/11/03 10:24:47;;;;;;;18.75;10.38;;;;;;;7.31;73.26;99040.13;8702663;33;20175;-75
2021/11/03 10:29:54;;;;;;;22.70;10.75;;;;;;;7.38;73.51;99035.94;8715887;33;20624;-75
2021/11/03 10:35:16;;;;;;;19.65;10.65;;;;;;;7.37;73.55;99044.94;8716656;33;20991;-75
2021/11/03 10:40:28;;;;;;;20.65;10.35;;;;;;;7.45;73.70;99052.28;8721557;33;20241;-75
2021/11/03 10:45:35;;;;;;;17.23;9.18;;;;;;;7.43;73.55;99057.75;8720616;33;20566;-75
2021/11/03 10:50:44;;;;;;;19.65;9.88;;;;;;;7.47;73.74;99053.81;8767088;32;20786;-75
2021/11/03 10:55:58;;;;;;;20.35;10.60;;;;;;;7.61;73.56;99057.09;8720058;33;20261;-75
2021/11/03 11:01:07;;;;;;;20.95;10.85;;;;;;;7.82;73.22;99055.16;8720553;33;20270;-75
2021/11/03 11:06:17;;;;;;;17.75;9.90;;;;;;;7.93;72.27;99056.84;8720378;33;20132;-75
2021/11/03 11:11:27;;;;;;;19.30;10.40;;;;;;;7.94;71.84;99061.22;8721343;33;20212;-75
2021/11/03 11:16:41;;;;;;;19.77;10.48;;;;;;;7.86;72.02;99059.22;8722735;33;20191;-75
2021/11/03 11:21:50;;;;;;;18.52;10.02;;;;;;;7.81;71.84;99056.13;8718910;33;20149;-75
2021/11/03 11:27:05;;;;;;;21.20;9.88;;;;;;;7.88;72.32;99046.56;8719859;33;20188;-75
2021/11/03 11:32:27;;;;;;;19.45;10.07;;;;;;;7.98;72.11;99045.72;8719921;33;20171;-75
2021/11/03 11:37:44;;;;;;;20.75;10.00;;;;;;;8.05;71.76;99047.69;8718610;33;20249;-75
2021/11/03 11:42:55;;;;;;;21.98;10.98;;;;;;;8.29;70.75;99041.09;8679983;33;20593;-75
2021/11/03 11:48:01;;;;;;;22.38;11.35;;;;;;;8.53;70.29;99024.56;8715602;33;20672;-75
2021/11/03 11:53:22;;;;;;;24.48;10.55;;;;;;;8.97;69.31;99015.03;8694232;33;20684;-75
2021/11/03 11:58:27;;;;;;;23.27;12.52;;;;;;;9.35;67.37;99021.19;8718999;33;20236;-74
2021/11/03 12:03:30;;;;;;;19.88;10.23;;;;;;;9.70;66.55;99015.00;8718353;33;21537;-74
2021/11/03 12:09:21;;;;;;;18.33;9.63;;;;;;;9.90;65.40;99005.03;8717806;33;20191;-73
2021/11/03 12:14:41;;;;;;;22.65;12.68;;;;;;;10.07;65.42;98997.13;8660204;33;23250;-75
2021/11/03 12:19:57;;;;;;;17.85;10.30;;;;;;;10.02;65.11;98991.38;8603283;33;20510;-73
2021/11/03 12:25:44;;;;;;;18.15;10.70;;;;;;;9.90;65.42;98988.06;8601537;33;21069;-73
2021/11/03 12:31:14;;;;;;;18.55;10.30;;;;;;;9.71;66.14;98981.03;8659675;33;20152;-73
2021/11/03 12:36:22;;;;;;;18.65;9.88;;;;;;;9.44;66.80;98979.25;8691219;33;20196;-74
2021/11/03 12:41:40;;;;;;;17.65;10.32;;;;;;;9.44;67.26;98981.91;8716449;33;20148;-74
2021/11/03 12:46:44;;;;;;;15.80;9.25;;;;;;;9.45;67.46;98983.59;8693333;33;20169;-74
2021/11/03 12:51:53;;;;;;;18.23;10.10;;;;;;;9.44;67.09;98982.75;8681764;33;20625;-74
2021/11/03 12:57:04;;;;;;;16.30;9.55;;;;;;;9.12;67.42;98974.34;8717366;33;20762;-73
2021/11/03 13:02:18;;;;;;;18.52;11.00;;;;;;;9.10;68.44;98979.00;8716976;33;20183;-74
2021/11/03 13:07:26;;;;;;;24.05;11.63;;;;;;;9.18;69.17;98979.94;8717398;33;20604;-74
2021/11/03 13:12:36;;;;;;;22.42;12.00;;;;;;;9.29;68.69;98973.53;8717397;33;20184;-74
2021/11/03 13:17:48;;;;;;;19.73;11.55;;;;;;;9.17;68.79;98975.59;8658526;33;20193;-73
2021/11/03 13:22:52;;;;;;;19.25;10.77;;;;;;;9.06;69.05;98978.47;8659268;33;20218;-74
2021/11/03 13:27:57;;;;;;;18.75;9.57;;;;;;;9.12;69.20;98971.66;8659017;33;20210;-74
2021/11/03 13:33:05;;;;;;;15.00;9.18;;;;;;;8.99;69.21;98975.53;8705929;33;20170;-74
2021/11/03 13:38:25;;;;;;;16.98;9.07;;;;;;;8.86;69.33;98984.88;8715962;33;20179;-74
2021/11/03 13:43:30;;;;;;;18.10;9.60;;;;;;;8.79;70.10;98968.59;8711647;33;20451;-74
2021/11/03 13:48:44;;;;;;;17.00;9.68;;;;;;;8.66;70.24;98966.22;8716432;33;20179;-73
2021/11/03 13:54:02;;;;;;;16.88;10.10;;;;;;;8.58;70.89;98966.97;8717080;33;20629;-74
2021/11/03 13:59:33;;;;;;;16.80;8.93;;;;;;;8.52;71.73;98975.56;8717172;33;21062;-74
2021/11/03 14:04:43;;;;;;;14.15;8.65;;;;;;;8.36;71.79;98972.63;8716813;33;20191;-74
2021/11/03 14:09:49;;;;;;;15.68;9.48;;;;;;;8.20;72.76;98972.38;8717160;33;20197;-74
2021/11/03 14:14:56;;;;;;;19.42;10.45;;;;;;;8.09;73.94;98973.38;8714530;33;20193;-75
2021/11/03 14:20:03;;;;;;;19.83;10.68;;;;;;;7.96;75.56;98984.38;8645835;33;20227;-74
2021/11/03 14:25:20;;;;;;;21.50;13.27;;;;;;;7.90;77.53;98979.63;8657658;33;20196;-75
2021/11/03 14:30:29;;;;;;;26.27;13.73;;;;;;;7.70;79.87;98984.94;8657509;33;20421;-74
2021/11/03 14:35:34;;;;;;;25.00;12.40;;;;;;;7.54;81.79;98981.13;8656833;33;21232;-74
2021/11/03 14:40:37;;;;;;;21.73;12.43;;;;;;;7.42;83.03;98983.09;8700015;33;20685;-75
2021/11/03 14:45:42;;;;;;;19.58;10.27;;;;;;;7.30;83.61;98985.03;8712513;33;20244;-74
2021/11/03 14:50:46;;;;;;;17.95;9.65;;;;;;;7.16;84.06;98983.59;8713206;33;20201;-74
2021/11/03 14:55:53;;;;;;;13.30;8.13;;;;;;;7.02;85.17;98986.63;8713034;33;20144;-73
2021/11/03 15:01:01;;;;;;;13.18;7.72;;;;;;;6.85;85.02;98993.44;8709710;33;20859;-73
2021/11/03 15:06:06;;;;;;;12.80;7.90;;;;;;;6.75;85.51;98992.56;8713542;33;20237;-73
2021/11/03 15:11:10;;;;;;;16.55;8.57;;;;;;;6.76;85.85;99000.41;8715008;33;20223;-73
2021/11/03 15:16:24;;;;;;;14.23;8.35;;;;;;;6.77;86.01;98996.75;8714727;33;20214;-73
2021/11/03 15:21:27;;;;;;;15.05;8.20;;;;;;;6.81;86.33;99003.53;8715677;33;20249;-73
2021/11/03 15:26:30;;;;;;;15.35;8.23;;;;;;;6.80;86.60;99001.84;8719583;33;20248;-74
2021/11/03 15:31:34;;;;;;;13.30;7.88;;;;;;;6.75;86.68;99006.75;8719800;33;20186;-74
2021/11/03 15:36:38;;;;;;;11.98;7.90;;;;;;;6.71;87.14;98989.28;8720180;33;20152;-74
2021/11/03 15:41:41;;;;;;;14.30;8.27;;;;;;;6.71;87.58;98994.63;8719308;33;20194;-74
2021/11/03 15:46:45;;;;;;;13.38;8.05;;;;;;;6.70;87.41;99010.78;8737107;33;20170;-73
2021/11/03 15:51:52;;;;;;;17.63;9.45;;;;;;;6.70;87.59;99002.78;8753817;33;20239;-72
2021/11/03 15:56:55;;;;;;;17.23;9.10;;;;;;;6.68;87.75;98999.41;8696373;33;21519;-73
2021/11/03 16:02:00;;;;;;;17.40;10.23;;;;;;;6.63;87.94;99002.44;8719058;33;20279;-74
2021/11/03 16:07:05;;;;;;;18.60;9.65;;;;;;;6.64;88.18;98998.84;8775498;33;20202;-75
2021/11/03 16:12:09;;;;;;;18.63;9.68;;;;;;;6.57;88.02;99001.16;8776983;33;20607;-76
2021/11/03 16:17:18;;;;;;;16.02;8.70;;;;;;;6.57;88.10;99006.50;8777733;33;20458;-77
2021/11/03 16:22:29;;;;;;;15.85;8.90;;;;;;;6.54;88.23;99001.44;8777873;33;20267;-76
2021/11/03 16:27:36;;;;;;;14.95;8.98;;;;;;;6.53;88.37;99010.44;8780415;33;20260;-75
2021/11/03 16:32:40;;;;;;;16.13;8.43;;;;;;;6.54;88.66;99019.25;8753731;33;20179;-77
2021/11/03 16:37:43;;;;;;;13.77;8.25;;;;;;;6.53;88.64;99014.91;8779127;33;20136;-78
2021/11/03 16:42:48;;;;;;;14.75;9.02;;;;;;;6.55;88.57;99010.28;8715523;33;20239;-77
2021/11/03 16:47:56;;;;;;;12.30;8.02;;;;;;;6.53;88.54;99017.59;8721973;33;20403;-77
2021/11/03 16:53:01;;;;;;;14.23;7.93;;;;;;;6.49;88.51;99016.16;8722174;33;20266;-77
2021/11/03 16:58:07;;;;;;;14.65;8.95;;;;;;;6.43;88.78;99022.00;8723337;33;20270;-78
2021/11/03 17:03:13;;;;;;;17.15;8.55;;;;;;;6.42;88.96;99013.16;8717221;33;20191;-77
2021/11/03 17:08:26;;;;;;;12.48;7.28;;;;;;;6.40;88.91;99023.13;8722519;33;20187;-77
2021/11/03 17:13:48;;;;;;;14.82;8.48;;;;;;;6.38;89.06;99033.06;8723577;33;20245;-77
2021/11/03 17:18:53;;;;;;;15.52;8.35;;;;;;;6.40;89.05;99026.63;8723836;33;20249;-76
2021/11/03 17:23:57;;;;;;;12.50;7.85;;;;;;;6.40;89.04;99023.13;8723484;33;20148;-77
2021/11/03 17:29:08;;;;;;;15.70;8.88;;;;;;;6.35;88.65;99025.31;8722200;33;21099;-77
2021/11/03 17:34:13;;;;;;;14.55;8.63;;;;;;;6.32;88.89;99037.09;8694668;33;20553;-78
2021/11/03 17:39:16;;;;;;;19.42;10.52;;;;;;;6.27;88.79;99025.13;8719147;33;20278;-76
2021/11/03 17:44:23;;;;;;;13.13;8.70;;;;;;;6.23;88.91;99023.72;8720536;33;20191;-77
2021/11/03 17:49:34;;;;;;;16.50;9.38;;;;;;;6.25;89.08;99029.75;8726937;33;20192;-77
2021/11/03 17:54:38;;;;;;;12.00;8.48;;;;;;;6.24;89.00;99030.72;8726280;33;20452;-76
2021/11/03 17:59:42;;;;;;;13.98;8.90;;;;;;;6.24;89.07;99028.06;8705736;33;20184;-77
2021/11/03 18:04:48;;;;;;;17.08;9.52;;;;;;;6.29;89.30;99045.38;8707170;33;20768;-76
2021/11/03 18:09:51;;;;;;;17.13;9.98;;;;;;;6.29;89.10;99044.53;8718744;33;20500;-77
2021/11/03 18:14:57;;;;;;;17.63;10.50;;;;;;;6.23;88.96;99034.38;8689202;33;21885;-77
2021/11/03 18:20:01;;;;;;;17.80;9.85;;;;;;;6.23;89.27;99040.56;8664722;33;20193;-77
2021/11/03 18:25:05;;;;;;;15.55;9.77;;;;;;;6.24;89.33;99044.06;8718089;33;20206;-76
2021/11/03 18:30:22;;;;;;;16.42;10.95;;;;;;;6.28;89.35;99038.34;8719127;33;20683;-76
2021/11/03 18:42:25;;;;;;;13.95;9.43;;;;;;;6.27;89.22;99057.13;8784263;33;20182;-79
2021/11/03 18:47:29;;;;;;;16.15;9.38;;;;;;;6.23;90.20;99053.88;8752669;33;20197;-75
2021/11/03 18:52:33;;;;;;;14.90;9.05;;;;;;;6.20;89.96;99051.47;8778837;33;20222;-77
2021/11/03 18:57:41;;;;;;;13.73;7.93;;;;;;;6.16;90.61;99053.53;8756166;33;20191;-77
2021/11/03 19:02:44;;;;;;;14.20;8.57;;;;;;;6.24;89.97;99044.06;8783066;33;20717;-77
2021/11/03 19:07:48;;;;;;;15.00;8.18;;;;;;;6.26;90.06;99050.13;8783404;33;20253;-76
2021/11/03 19:12:54;;;;;;;15.43;8.55;;;;;;;6.32;89.89;99057.59;8753159;33;20183;-77
2021/11/03 19:17:58;;;;;;;13.20;8.93;;;;;;;6.25;89.40;99057.25;8737593;33;20897;-77
2021/11/03 19:23:20;;;;;;;13.60;9.02;;;;;;;6.23;89.75;99069.03;8728723;33;20244;-76
2021/11/03 19:28:26;;;;;;;13.90;9.35;;;;;;;6.26;89.87;99068.78;8687136;33;20195;-78
2021/11/03 19:33:29;;;;;;;12.63;8.20;;;;;;;6.27;89.75;99073.13;8646102;33;20561;-78
2021/11/03 19:38:37;;;;;;;15.55;8.77;;;;;;;6.22;89.58;99073.50;8707199;33;21413;-77
2021/11/03 19:43:41;;;;;;;14.43;8.38;;;;;;;6.19;89.66;99060.44;8722577;33;20167;-77
2021/11/03 19:48:48;;;;;;;15.20;8.38;;;;;;;6.22;89.57;99070.00;8650732;33;20203;-77
2021/11/03 19:53:57;;;;;;;12.30;8.35;;;;;;;6.22;89.56;99060.16;8718244;33;20198;-77
2021/11/03 19:59:01;;;;;;;13.55;8.27;;;;;;;6.18;89.51;99051.59;8727727;33;21491;-77
2021/11/03 20:04:05;;;;;;;16.75;9.98;;;;;;;6.15;89.50;99059.84;8691596;33;20304;-76
2021/11/03 20:09:14;;;;;;;17.55;9.85;;;;;;;6.16;89.50;99056.19;8719352;33;20677;-76
2021/11/03 20:14:20;;;;;;;16.40;9.68;;;;;;;6.23;89.64;99051.22;8696297;33;20242;-77
2021/11/03 20:19:31;;;;;;;19.80;10.55;;;;;;;6.26;89.59;99061.63;8726269;33;20668;-76
2021/11/03 20:24:38;;;;;;;17.17;10.45;;;;;;;6.27;89.85;99068.63;8719828;33;20602;-77
2021/11/03 20:29:42;;;;;;;18.73;11.73;;;;;;;6.33;89.98;99062.78;8720080;33;20248;-77
2021/11/03 20:34:45;;;;;;;18.67;12.68;;;;;;;6.34;89.87;99064.50;8719298;33;20159;-77
2021/11/03 20:39:49;;;;;;;21.00;12.50;;;;;;;6.33;90.04;99072.59;8719596;33;20183;-76
2021/11/03 20:45:18;;;;;;;17.40;11.90;;;;;;;6.35;90.15;99066.16;8644040;33;20183;-77
2021/11/03 20:50:29;;;;;;;20.35;12.02;;;;;;;6.37;90.17;99063.38;8718883;33;21411;-77
2021/11/03 20:55:34;;;;;;;20.67;11.90;;;;;;;6.40;90.14;99069.31;8738423;33;21095;-77
2021/11/03 21:00:41;;;;;;;19.73;11.38;;;;;;;6.39;90.19;99067.63;8718675;33;20965;-77
2021/11/03 21:05:44;;;;;;;26.70;12.73;;;;;;;6.43;90.09;99070.88;8718723;33;20687;-76
2021/11/03 21:10:52;;;;;;;22.95;12.98;;;;;;;6.44;90.05;99061.03;8719103;33;20302;-75
2021/11/03 21:15:58;;;;;;;25.73;12.93;;;;;;;6.43;90.14;99065.53;8718323;33;20233;-77
2021/11/03 21:21:01;;;;;;;23.40;13.15;;;;;;;6.44;90.12;99069.88;8718524;33;20195;-76
2021/11/03 21:26:05;;;;;;;21.27;12.50;;;;;;;6.46;90.13;99075.09;8763625;33;20140;-76
2021/11/03 21:31:10;;;;;;;22.67;13.27;;;;;;;6.44;90.14;99079.72;8751454;33;20144;-77
2021/11/03 21:36:13;;;;;;;23.77;13.43;;;;;;;6.45;90.06;99086.75;8721956;33;20315;-77
2021/11/03 21:41:16;;;;;;;24.23;12.60;;;;;;;6.50;90.17;99084.50;8672636;33;20282;-77
2021/11/03 21:46:20;;;;;;;24.30;12.88;;;;;;;6.50;90.12;99092.53;8718679;33;20187;-76
2021/11/03 21:51:23;;;;;;;26.90;14.43;;;;;;;6.52;90.01;99093.25;8718222;33;20137;-77
2021/11/03 21:56:27;;;;;;;23.73;12.77;;;;;;;6.52;90.12;99091.41;8670557;33;20164;-75
2021/11/03 22:01:31;;;;;;;26.70;14.20;;;;;;;6.54;90.18;99096.63;8734470;33;20199;-77
2021/11/03 22:06:35;;;;;;;22.80;13.07;;;;;;;6.53;90.16;99094.94;8690501;33;20187;-75
2021/11/03 22:11:38;;;;;;;26.13;14.32;;;;;;;6.53;90.07;99085.13;8716381;33;20217;-75
2021/11/03 22:16:44;;;;;;;25.50;14.05;;;;;;;6.55;90.15;99098.31;8716138;33;20261;-76
2021/11/03 22:21:47;;;;;;;25.05;13.93;;;;;;;6.55;90.13;99092.97;8715575;33;20531;-75
2021/11/03 22:26:50;;;;;;;28.63;14.73;;;;;;;6.58;90.05;99082.03;8678861;33;20536;-76
2021/11/03 22:31:55;;;;;;;27.55;14.55;;;;;;;6.59;90.29;99091.75;8715143;33;20160;-76
2021/11/03 22:36:58;;;;;;;25.63;14.25;;;;;;;6.63;90.25;99070.00;8714949;33;20179;-75
2021/11/03 22:42:01;;;;;;;27.80;15.38;;;;;;;6.69;89.95;99068.66;8715628;33;20530;-75
2021/11/03 22:47:06;;;;;;;30.02;16.73;;;;;;;6.70;89.93;99080.16;8714918;33;20291;-76
2021/11/03 22:52:09;;;;;;;27.15;14.40;;;;;;;6.69;89.85;99092.69;8714921;33;20217;-76
2021/11/03 22:57:12;;;;;;;29.63;16.80;;;;;;;6.69;89.90;99097.13;8690117;33;20674;-76
2021/11/03 23:02:16;;;;;;;25.88;15.18;;;;;;;6.70;89.79;99091.69;8714188;33;20684;-75
2021/11/03 23:07:19;;;;;;;26.83;14.80;;;;;;;6.70;89.83;99102.38;8713334;33;20809;-76
2021/11/03 23:12:22;;;;;;;30.20;15.07;;;;;;;6.72;89.82;99094.22;8688926;33;20177;-76
2021/11/03 23:17:27;;;;;;;26.83;15.10;;;;;;;6.75;89.84;99088.63;8689035;33;20227;-76
2021/11/03 23:22:31;;;;;;;26.02;14.10;;;;;;;6.74;89.66;99084.25;8689715;33;20179;-76
2021/11/03 23:27:34;;;;;;;27.75;15.27;;;;;;;6.74;89.91;99077.09;8713191;33;20187;-76
2021/11/03 23:32:39;;;;;;;28.92;14.63;;;;;;;6.75;89.65;99077.97;8713595;33;20196;-75
2021/11/03 23:37:42;;;;;;;25.27;13.45;;;;;;;6.73;89.71;99080.75;8712931;33;20857;-75
2021/11/03 23:42:46;;;;;;;26.73;14.52;;;;;;;6.74;89.71;99078.91;8714317;33;20680;-75
2021/11/03 23:47:52;;;;;;;29.17;14.55;;;;;;;6.74;89.63;99085.09;8717803;33;20227;-75
2021/11/03 23:52:56;;;;;;;28.77;15.65;;;;;;;6.72;89.64;99073.72;8717711;33;20191;-75
2021/11/03 23:58:00;;;;;;;33.38;14.45;;;;;;;6.73;89.56;99080.75;8716820;33;20549;-76
